Time;durP1;ratioP1;P1;durP2;ratioP2;P2;SDS_P1;SDS_P2;PMS_P1;PMS_P2;Temp;Humidity;BMP_temperature;BMP_pressure;BME280_temperature;BME280_humidity;BME280_pressure;Samples;Min_cycle;Max_cycle;Signal;HPM_P1;HPM_P2
2024/02/17 00:00:22;;;;;;;11.70;8.90;;;13.90;99.90;;;;;;5018201;28;20192;-68
2024/02/17 00:02:48;;;;;;;12.80;10.10;;;14.00;99.90;;;;;;5017583;28;20188;-69
2024/02/17 00:05:13;;;;;;;11.73;8.10;;;14.00;99.90;;;;;;5018483;28;20204;-69
2024/02/17 00:07:39;;;;;;;11.60;9.30;;;14.00;99.90;;;;;;5016744;28;20423;-69
2024/02/17 00:10:05;;;;;;;11.07;9.03;;;14.10;99.90;;;;;;5017729;28;20579;-69
2024/02/17 00:12:31;;;;;;;12.50;9.33;;;14.00;99.90;;;;;;5020254;28;20256;-69
2024/02/17 00:14:56;;;;;;;11.17;9.43;;;14.00;99.90;;;;;;5019370;28;21065;-69
2024/02/17 00:17:22;;;;;;;11.97;9.80;;;14.10;99.90;;;;;;5015075;28;20176;-69
2024/02/17 00:19:48;;;;;;;10.30;9.17;;;14.00;99.90;;;;;;5016018;28;20537;-69
2024/02/17 00:22:14;;;;;;;10.60;8.97;;;14.10;99.90;;;;;;5017254;28;20184;-69
2024/02/17 00:24:40;;;;;;;12.37;9.50;;;14.00;99.90;;;;;;5019287;28;20205;-69
2024/02/17 00:27:07;;;;;;;12.13;9.50;;;14.00;99.90;;;;;;5017127;28;20498;-68
2024/02/17 00:29:33;;;;;;;16.47;10.17;;;13.90;99.90;;;;;;5021066;28;20438;-69
2024/02/17 00:31:59;;;;;;;10.93;9.30;;;14.00;99.90;;;;;;5015149;28;20496;-69
2024/02/17 00:34:24;;;;;;;12.90;10.27;;;14.00;99.90;;;;;;5016829;28;20467;-69
2024/02/17 00:36:50;;;;;;;12.07;9.83;;;14.00;99.90;;;;;;5021868;28;20639;-69
2024/02/17 00:39:16;;;;;;;13.40;10.40;;;14.10;99.90;;;;;;5019316;28;20195;-69
2024/02/17 00:41:42;;;;;;;14.57;11.10;;;14.00;99.90;;;;;;5016648;28;20177;-69
2024/02/17 00:44:08;;;;;;;16.50;10.00;;;14.00;99.90;;;;;;5019954;28;20199;-69
2024/02/17 00:46:34;;;;;;;12.43;10.83;;;14.10;99.90;;;;;;5019912;28;20840;-69
2024/02/17 00:49:00;;;;;;;13.80;10.53;;;14.20;99.90;;;;;;5017300;28;20472;-69
2024/02/17 00:51:27;;;;;;;13.37;11.50;;;14.10;99.90;;;;;;5016009;28;20495;-69
2024/02/17 00:53:52;;;;;;;16.50;11.20;;;14.10;99.90;;;;;;5017528;28;20208;-69
2024/02/17 00:56:21;;;;;;;15.00;12.83;;;14.10;99.90;;;;;;5014947;28;20430;-69
2024/02/17 00:58:46;;;;;;;12.30;10.93;;;14.10;99.90;;;;;;5010300;28;20710;-69
2024/02/17 01:01:12;;;;;;;15.67;11.73;;;14.00;99.90;;;;;;5013054;28;20507;-69
2024/02/17 01:03:37;;;;;;;15.77;12.10;;;14.00;99.90;;;;;;5014054;28;20299;-69
2024/02/17 01:06:03;;;;;;;14.97;12.07;;;14.00;99.90;;;;;;5017093;28;20189;-69
2024/02/17 01:08:30;;;;;;;15.17;12.30;;;14.00;99.90;;;;;;5016231;28;20185;-69
2024/02/17 01:10:55;;;;;;;14.77;12.73;;;14.00;99.90;;;;;;5017652;28;20693;-69
2024/02/17 01:13:21;;;;;;;13.03;11.50;;;13.90;99.90;;;;;;5016274;28;20448;-69
2024/02/17 01:15:47;;;;;;;14.70;11.27;;;13.80;99.90;;;;;;5018585;28;20643;-69
2024/02/17 01:18:12;;;;;;;14.63;11.80;;;13.70;99.90;;;;;;5013580;28;20181;-69
2024/02/17 01:20:38;;;;;;;14.90;12.40;;;13.70;99.90;;;;;;5013338;28;20184;-69
2024/02/17 01:23:04;;;;;;;17.30;13.43;;;13.70;99.90;;;;;;5013316;28;20199;-69
2024/02/17 01:25:29;;;;;;;15.23;12.70;;;13.70;99.90;;;;;;5017637;28;20283;-69
2024/02/17 01:27:55;;;;;;;14.43;12.23;;;13.80;99.90;;;;;;5015535;28;20710;-69
2024/02/17 01:30:20;;;;;;;14.33;11.17;;;13.70;99.90;;;;;;5014640;28;20315;-70
2024/02/17 01:32:46;;;;;;;15.40;10.87;;;13.80;99.90;;;;;;5017953;28;20181;-69
2024/02/17 01:35:13;;;;;;;12.33;10.23;;;13.80;99.90;;;;;;5009562;28;20207;-69
2024/02/17 01:37:39;;;;;;;12.23;11.03;;;13.90;99.90;;;;;;5010904;28;20943;-69
2024/02/17 01:40:05;;;;;;;12.57;11.23;;;13.90;99.90;;;;;;5016390;28;20420;-68
2024/02/17 01:42:31;;;;;;;11.43;9.83;;;13.90;99.90;;;;;;5016502;28;20518;-68
2024/02/17 01:44:56;;;;;;;11.83;9.87;;;14.00;99.90;;;;;;5016687;28;20526;-69
2024/02/17 01:47:22;;;;;;;13.33;11.03;;;14.00;99.90;;;;;;5016627;28;20177;-68
2024/02/17 01:49:48;;;;;;;11.07;9.27;;;14.10;99.90;;;;;;5015729;28;20243;-68
2024/02/17 01:52:15;;;;;;;11.90;10.23;;;14.10;99.90;;;;;;5018038;28;20192;-68
2024/02/17 01:54:42;;;;;;;11.80;9.93;;;14.10;99.90;;;;;;5019963;28;20216;-68
2024/02/17 01:57:09;;;;;;;11.20;10.00;;;14.10;99.90;;;;;;5018136;28;20448;-68
2024/02/17 01:59:35;;;;;;;15.50;11.23;;;14.10;99.90;;;;;;5015247;28;20435;-68
2024/02/17 02:02:01;;;;;;;9.83;8.90;;;14.20;99.90;;;;;;5018551;28;20813;-68
2024/02/17 02:04:27;;;;;;;11.27;9.60;;;14.20;99.90;;;;;;5015002;28;20454;-68
2024/02/17 02:06:52;;;;;;;8.57;7.73;;;14.20;99.90;;;;;;5019948;28;20189;-68
2024/02/17 02:09:23;;;;;;;11.77;7.57;;;14.20;99.90;;;;;;5011129;28;20200;-68
2024/02/17 02:11:53;;;;;;;9.30;7.50;;;14.20;99.90;;;;;;5013057;28;20623;-68
2024/02/17 02:14:19;;;;;;;7.00;6.30;;;14.20;99.90;;;;;;5013003;28;20551;-68
2024/02/17 02:16:48;;;;;;;9.50;7.07;;;14.20;99.90;;;;;;5013221;28;20451;-68
2024/02/17 02:19:14;;;;;;;12.57;7.37;;;14.20;99.90;;;;;;5009399;28;20444;-68
2024/02/17 02:21:40;;;;;;;9.20;7.20;;;14.20;99.90;;;;;;5009460;28;20432;-68
2024/02/17 02:24:07;;;;;;;8.43;6.63;;;14.20;99.90;;;;;;5017011;28;20432;-68
2024/02/17 02:26:32;;;;;;;10.23;8.00;;;14.20;99.90;;;;;;5009724;28;20474;-69
2024/02/17 02:28:58;;;;;;;9.37;7.97;;;14.20;99.90;;;;;;5016013;28;20443;-68
2024/02/17 02:31:24;;;;;;;9.30;7.87;;;14.20;99.90;;;;;;5013065;28;20182;-68
2024/02/17 02:33:53;;;;;;;9.53;8.27;;;14.20;99.90;;;;;;5018361;28;20784;-68
2024/02/17 02:36:20;;;;;;;10.50;8.07;;;14.10;99.90;;;;;;5013055;28;20439;-68
2024/02/17 02:38:46;;;;;;;10.93;8.90;;;14.10;99.90;;;;;;5017480;28;20466;-69
2024/02/17 02:41:12;;;;;;;10.33;7.67;;;14.10;99.90;;;;;;5016501;28;20518;-69
2024/02/17 02:43:38;;;;;;;9.43;7.43;;;14.20;99.90;;;;;;5019227;28;20543;-69
2024/02/17 02:46:04;;;;;;;9.47;7.67;;;14.10;99.90;;;;;;5023463;28;20264;-69
2024/02/17 02:48:29;;;;;;;8.83;7.80;;;14.00;99.90;;;;;;5017397;28;20264;-69
2024/02/17 02:50:55;;;;;;;11.03;9.10;;;14.10;99.90;;;;;;5015402;28;20196;-69
2024/02/17 02:53:21;;;;;;;8.93;8.00;;;14.00;99.90;;;;;;5020192;28;20592;-69
2024/02/17 02:55:46;;;;;;;9.63;8.30;;;14.00;99.90;;;;;;5022248;28;20950;-69
2024/02/17 02:58:12;;;;;;;8.77;7.80;;;13.90;99.90;;;;;;5023734;28;20184;-69
2024/02/17 03:00:38;;;;;;;9.80;8.80;;;14.00;99.90;;;;;;5015345;28;20650;-69
2024/02/17 03:03:03;;;;;;;9.60;8.40;;;14.00;99.90;;;;;;5025229;28;20698;-69
2024/02/17 03:05:30;;;;;;;10.43;8.50;;;14.00;99.90;;;;;;5023018;28;20691;-69
2024/02/17 03:07:56;;;;;;;9.67;8.67;;;13.90;99.90;;;;;;5025723;28;20197;-69
2024/02/17 03:10:21;;;;;;;11.17;9.97;;;14.00;99.90;;;;;;5016873;28;20534;-69
2024/02/17 03:12:47;;;;;;;11.83;9.20;;;13.90;99.90;;;;;;5018900;28;20736;-68
2024/02/17 03:15:13;;;;;;;11.00;9.70;;;13.90;99.90;;;;;;5017153;28;20212;-69
2024/02/17 03:17:38;;;;;;;9.90;8.23;;;13.90;99.90;;;;;;5021386;28;22247;-69
2024/02/17 03:20:05;;;;;;;12.00;9.33;;;13.90;99.90;;;;;;5016047;28;20188;-69
2024/02/17 03:22:31;;;;;;;11.63;9.60;;;13.90;99.90;;;;;;5020550;28;20184;-68
2024/02/17 03:24:57;;;;;;;12.00;10.70;;;13.90;99.90;;;;;;5025287;28;20991;-68
2024/02/17 03:27:24;;;;;;;9.80;8.80;;;13.90;99.90;;;;;;5022460;28;20918;-68
2024/02/17 03:29:49;;;;;;;11.13;9.20;;;13.90;99.90;;;;;;5017201;28;20519;-68
2024/02/17 03:32:15;;;;;;;12.43;9.80;;;13.90;99.90;;;;;;5024160;28;20192;-68
2024/02/17 03:34:42;;;;;;;11.00;8.37;;;13.90;99.90;;;;;;5021302;28;20266;-68
2024/02/17 03:37:08;;;;;;;12.63;10.17;;;13.90;99.90;;;;;;5021178;28;20195;-68
2024/02/17 03:39:37;;;;;;;11.20;10.00;;;13.90;99.90;;;;;;5020793;28;20918;-68
2024/02/17 03:42:03;;;;;;;12.17;10.20;;;13.90;99.90;;;;;;5014444;28;20188;-68
2024/02/17 03:44:30;;;;;;;12.50;11.20;;;13.90;99.90;;;;;;5016751;28;20490;-68
2024/02/17 03:46:55;;;;;;;13.50;10.60;;;13.90;99.90;;;;;;5018163;28;20503;-68
2024/02/17 03:49:22;;;;;;;18.97;11.93;;;14.00;99.90;;;;;;5016235;28;20448;-68
2024/02/17 03:51:48;;;;;;;12.40;9.97;;;14.00;99.90;;;;;;5015205;28;20193;-68
2024/02/17 03:54:14;;;;;;;14.20;10.53;;;14.00;99.90;;;;;;5021151;28;20984;-68
2024/02/17 03:56:39;;;;;;;10.60;9.50;;;14.00;99.90;;;;;;5018053;28;20452;-68
2024/02/17 03:59:05;;;;;;;11.47;9.83;;;13.90;99.90;;;;;;5019663;28;20467;-68
2024/02/17 04:01:37;;;;;;;11.60;10.30;;;13.80;99.90;;;;;;5013754;28;20193;-68
2024/02/17 04:04:04;;;;;;;11.20;9.43;;;13.80;99.90;;;;;;5021980;28;20208;-69
2024/02/17 04:06:30;;;;;;;10.30;9.07;;;13.80;99.90;;;;;;5025465;28;20505;-69
2024/02/17 04:08:57;;;;;;;10.57;9.43;;;13.80;99.90;;;;;;5029000;28;20467;-69
2024/02/17 04:11:22;;;;;;;13.33;9.60;;;13.70;99.90;;;;;;5018044;28;20424;-69
2024/02/17 04:13:48;;;;;;;9.53;8.50;;;13.70;99.90;;;;;;5019911;28;20925;-69
2024/02/17 04:16:14;;;;;;;11.30;9.20;;;13.70;99.90;;;;;;5015503;28;20276;-69
2024/02/17 04:18:39;;;;;;;11.47;9.20;;;13.70;99.90;;;;;;5019624;28;21090;-68
2024/02/17 04:21:05;;;;;;;11.57;10.17;;;13.70;99.90;;;;;;5018334;28;20232;-68
2024/02/17 04:23:31;;;;;;;12.47;9.47;;;13.60;99.90;;;;;;5015645;28;20188;-68
2024/02/17 04:25:59;;;;;;;14.50;10.30;;;13.60;99.90;;;;;;5018211;28;20187;-68
2024/02/17 04:28:25;;;;;;;11.30;10.17;;;13.60;99.90;;;;;;5021623;28;20188;-68
2024/02/17 04:30:51;;;;;;;16.93;11.37;;;13.70;99.90;;;;;;5017974;28;20419;-68
2024/02/17 04:33:16;;;;;;;13.50;9.93;;;13.60;99.90;;;;;;5014336;28;20216;-68
2024/02/17 04:35:42;;;;;;;13.17;10.87;;;13.70;99.90;;;;;;5012452;28;20243;-68
2024/02/17 04:38:07;;;;;;;12.97;9.93;;;13.70;99.90;;;;;;5018897;28;20193;-68
2024/02/17 04:40:33;;;;;;;11.97;10.63;;;13.80;99.90;;;;;;5020110;28;20516;-68
2024/02/17 04:42:59;;;;;;;11.43;10.23;;;13.80;99.90;;;;;;5016573;28;20269;-68
2024/02/17 04:45:27;;;;;;;15.13;10.93;;;13.70;99.90;;;;;;5015710;28;20224;-68
2024/02/17 04:47:53;;;;;;;11.80;10.10;;;13.80;99.90;;;;;;5017143;28;20184;-68
2024/02/17 04:50:19;;;;;;;12.03;10.40;;;13.80;99.90;;;;;;5018874;28;20473;-67
2024/02/17 04:52:45;;;;;;;12.67;10.40;;;13.70;99.90;;;;;;5011082;28;20630;-68
2024/02/17 04:55:11;;;;;;;11.47;10.27;;;13.60;99.90;;;;;;5017701;28;20480;-68
2024/02/17 04:57:36;;;;;;;12.00;10.33;;;13.70;99.90;;;;;;5011190;28;20180;-68
2024/02/17 05:00:05;;;;;;;11.87;10.00;;;13.70;99.90;;;;;;5017798;28;21218;-68
2024/02/17 05:02:31;;;;;;;12.50;10.70;;;13.70;99.90;;;;;;5014214;28;20181;-68
2024/02/17 05:04:57;;;;;;;13.60;10.30;;;13.70;99.90;;;;;;5014117;28;20489;-68
2024/02/17 05:07:22;;;;;;;11.60;9.97;;;13.70;99.90;;;;;;5016788;28;20198;-68
2024/02/17 05:09:48;;;;;;;12.23;10.30;;;13.70;99.90;;;;;;5008335;28;20209;-68
2024/02/17 05:12:13;;;;;;;12.37;10.40;;;13.70;99.90;;;;;;5011327;28;20710;-68
2024/02/17 05:14:39;;;;;;;13.53;10.73;;;13.60;99.90;;;;;;5008944;28;20884;-68
2024/02/17 05:17:04;;;;;;;13.27;11.63;;;13.60;99.90;;;;;;5013574;28;20184;-68
2024/02/17 05:19:30;;;;;;;12.77;10.13;;;13.50;99.90;;;;;;5013328;28;20691;-68
2024/02/17 05:21:58;;;;;;;10.87;9.77;;;13.50;99.90;;;;;;5016297;28;20189;-68
2024/02/17 05:24:23;;;;;;;13.60;9.50;;;13.50;99.90;;;;;;5015697;28;20215;-69
2024/02/17 05:26:49;;;;;;;11.00;8.90;;;13.40;99.90;;;;;;5018317;28;20438;-68
2024/02/17 05:29:15;;;;;;;11.80;9.70;;;13.40;99.90;;;;;;5013335;28;20420;-68
2024/02/17 05:31:40;;;;;;;11.53;10.00;;;13.40;99.90;;;;;;5017131;28;20188;-69
2024/02/17 05:34:06;;;;;;;11.53;10.07;;;13.30;99.90;;;;;;5017833;28;20295;-69
2024/02/17 05:36:32;;;;;;;13.00;9.77;;;13.30;99.90;;;;;;5014891;28;20192;-68
2024/02/17 05:38:57;;;;;;;11.37;10.17;;;13.30;99.90;;;;;;5019528;28;20173;-68
2024/02/17 05:41:24;;;;;;;11.03;9.93;;;13.20;99.90;;;;;;5011652;28;20185;-68
2024/02/17 05:43:49;;;;;;;13.27;9.50;;;13.20;99.90;;;;;;5011855;28;20208;-68
2024/02/17 05:46:15;;;;;;;13.37;10.33;;;13.20;99.90;;;;;;5017953;28;20435;-68
2024/02/17 05:48:44;;;;;;;11.87;10.47;;;13.20;99.90;;;;;;5016289;28;20199;-68
2024/02/17 05:51:09;;;;;;;12.93;10.47;;;13.20;99.90;;;;;;5015787;28;20181;-68
2024/02/17 05:53:35;;;;;;;14.60;10.20;;;13.20;99.90;;;;;;5012818;28;22131;-68
2024/02/17 05:56:00;;;;;;;13.23;9.70;;;13.20;99.90;;;;;;5011609;28;20552;-68
2024/02/17 05:58:26;;;;;;;13.80;10.50;;;13.20;99.90;;;;;;5011383;28;20721;-68
2024/02/17 06:00:51;;;;;;;14.40;10.33;;;13.20;99.90;;;;;;5013845;28;20219;-68
2024/02/17 06:03:17;;;;;;;12.10;10.80;;;13.20;99.90;;;;;;5013793;28;20613;-68
2024/02/17 06:05:44;;;;;;;15.43;11.20;;;13.20;99.90;;;;;;5012838;28;20275;-69
2024/02/17 06:08:10;;;;;;;12.23;9.77;;;13.20;99.90;;;;;;5012075;28;20185;-68
2024/02/17 06:10:35;;;;;;;13.30;10.93;;;13.20;99.90;;;;;;5015997;28;20774;-68
2024/02/17 06:13:01;;;;;;;11.83;10.10;;;13.20;99.90;;;;;;5012798;28;20545;-68
2024/02/17 06:15:26;;;;;;;12.17;10.37;;;13.20;99.90;;;;;;5016949;28;20255;-68
2024/02/17 06:23:24;;;;;;;12.03;10.73;;;13.30;99.90;;;;;;5010459;28;20438;-69
2024/02/17 06:25:50;;;;;;;10.77;8.90;;;13.30;99.90;;;;;;5011267;28;20910;-68
2024/02/17 06:28:16;;;;;;;12.67;9.60;;;13.30;99.90;;;;;;5017329;28;20181;-68
2024/02/17 06:30:41;;;;;;;12.03;10.70;;;13.30;99.90;;;;;;5011416;28;20181;-69
2024/02/17 06:33:07;;;;;;;12.60;9.80;;;13.30;99.90;;;;;;5011462;28;20208;-69
2024/02/17 06:35:32;;;;;;;14.00;9.37;;;13.30;99.90;;;;;;5010005;28;20212;-68
2024/02/17 06:37:58;;;;;;;9.93;8.67;;;13.30;99.90;;;;;;5010054;28;20203;-68
2024/02/17 06:40:24;;;;;;;15.80;9.33;;;13.30;99.90;;;;;;5012802;28;20207;-68
2024/02/17 06:42:49;;;;;;;14.20;9.40;;;13.30;99.90;;;;;;5011692;28;20177;-68
2024/02/17 06:45:16;;;;;;;11.80;8.43;;;13.30;99.90;;;;;;5014462;28;20209;-68
2024/02/17 06:47:43;;;;;;;10.80;9.00;;;13.30;99.90;;;;;;5016195;28;20215;-68
2024/02/17 06:50:11;;;;;;;16.30;9.40;;;13.30;99.90;;;;;;5011376;28;20478;-68
2024/02/17 06:52:37;;;;;;;11.00;8.70;;;13.20;99.90;;;;;;5014360;28;20439;-69
2024/02/17 06:55:03;;;;;;;11.03;9.53;;;13.20;99.90;;;;;;5010478;28;20896;-68
2024/02/17 06:57:28;;;;;;;13.60;9.53;;;13.20;99.90;;;;;;5015184;28;20702;-68
2024/02/17 06:59:54;;;;;;;12.40;9.30;;;13.20;99.90;;;;;;5011487;28;20695;-68
2024/02/17 07:02:23;;;;;;;13.93;9.80;;;13.20;99.90;;;;;;5019170;28;20176;-68
2024/02/17 07:04:49;;;;;;;9.47;8.27;;;13.20;99.90;;;;;;5012691;28;20254;-68
2024/02/17 07:07:14;;;;;;;10.60;9.27;;;13.10;99.90;;;;;;5014508;28;20435;-68
2024/02/17 07:09:40;;;;;;;11.67;8.57;;;13.10;99.90;;;;;;5013750;28;20431;-68
2024/02/17 07:12:06;;;;;;;14.37;10.10;;;13.10;99.90;;;;;;5011410;28;20192;-68
2024/02/17 07:14:32;;;;;;;10.13;8.27;;;13.00;99.90;;;;;;5021608;28;20269;-68
2024/02/17 07:16:57;;;;;;;14.50;10.17;;;13.00;99.90;;;;;;5008797;28;20487;-68
2024/02/17 07:19:23;;;;;;;10.70;8.70;;;13.00;99.90;;;;;;5016010;28;20181;-68
2024/02/17 07:21:49;;;;;;;13.03;9.90;;;13.00;99.90;;;;;;5015143;28;20213;-68
2024/02/17 07:24:14;;;;;;;13.63;10.00;;;13.00;99.90;;;;;;5017858;28;20241;-68
2024/02/17 07:26:43;;;;;;;10.43;9.10;;;13.00;99.90;;;;;;5019300;28;20223;-68
2024/02/17 07:29:12;;;;;;;10.87;8.23;;;12.90;99.90;;;;;;5013313;28;20192;-68
2024/02/17 07:31:40;;;;;;;11.40;9.33;;;13.00;99.90;;;;;;5015411;28;20447;-68
2024/02/17 07:34:06;;;;;;;10.33;9.17;;;13.00;99.90;;;;;;5021353;28;20671;-68
2024/02/17 07:36:31;;;;;;;13.07;9.00;;;12.90;99.90;;;;;;5017808;28;20457;-68
2024/02/17 07:38:57;;;;;;;11.07;9.27;;;13.00;99.90;;;;;;5019490;28;20438;-68
2024/02/17 07:41:22;;;;;;;14.23;10.00;;;13.00;99.90;;;;;;5022700;28;20181;-68
2024/02/17 07:43:50;;;;;;;9.77;8.77;;;13.00;99.90;;;;;;5021309;28;20204;-68
2024/02/17 07:46:15;;;;;;;12.23;9.67;;;13.00;99.90;;;;;;5022153;28;20272;-68
2024/02/17 07:48:42;;;;;;;9.83;8.77;;;13.00;99.90;;;;;;5018565;28;20546;-68
2024/02/17 07:51:07;;;;;;;12.47;10.57;;;13.00;99.90;;;;;;5011335;28;20185;-68
2024/02/17 07:53:33;;;;;;;12.93;11.13;;;13.00;99.90;;;;;;5018869;28;20480;-68
2024/02/17 07:55:58;;;;;;;14.37;10.60;;;13.00;99.90;;;;;;5017328;28;20188;-68
2024/02/17 07:58:24;;;;;;;13.57;10.67;;;13.00;99.90;;;;;;5014929;28;20986;-68
2024/02/17 08:00:49;;;;;;;14.10;10.87;;;13.00;99.90;;;;;;5014827;28;20516;-68
2024/02/17 08:03:16;;;;;;;14.23;10.53;;;13.00;99.90;;;;;;5013597;28;20212;-68
2024/02/17 08:05:41;;;;;;;11.87;10.53;;;13.00;99.90;;;;;;5016448;28;20257;-68
2024/02/17 08:08:07;;;;;;;12.17;10.27;;;13.10;99.90;;;;;;5017488;28;20439;-68
2024/02/17 08:10:33;;;;;;;11.93;10.07;;;13.10;99.90;;;;;;5016424;28;20492;-68
2024/02/17 08:12:58;;;;;;;13.83;9.77;;;13.20;99.90;;;;;;5013564;28;20231;-69
2024/02/17 08:15:24;;;;;;;11.80;9.20;;;13.30;99.90;;;;;;5016348;28;20764;-69
2024/02/17 08:17:49;;;;;;;12.10;9.50;;;13.40;99.90;;;;;;5007493;28;20185;-69
2024/02/17 08:20:15;;;;;;;14.60;9.63;;;13.50;99.90;;;;;;5017191;28;20581;-69
2024/02/17 08:22:40;;;;;;;13.43;10.77;;;13.50;99.90;;;;;;5015953;28;20184;-69
2024/02/17 08:25:09;;;;;;;12.80;9.70;;;13.60;99.90;;;;;;5015622;28;20209;-69
2024/02/17 08:27:38;;;;;;;10.47;9.37;;;13.70;99.90;;;;;;5017707;28;20188;-69
2024/02/17 08:30:04;;;;;;;10.50;9.33;;;13.80;99.90;;;;;;5013772;28;20428;-69
2024/02/17 08:32:32;;;;;;;11.90;9.70;;;13.80;99.90;;;;;;5013182;28;20795;-69
2024/02/17 08:34:57;;;;;;;10.07;9.07;;;13.90;99.90;;;;;;5016931;28;20979;-69
2024/02/17 08:37:23;;;;;;;14.23;10.07;;;14.00;99.90;;;;;;5022450;28;20470;-69
2024/02/17 08:39:49;;;;;;;9.60;8.00;;;14.10;99.90;;;;;;5014201;28;20180;-69
2024/02/17 08:42:15;;;;;;;8.60;7.80;;;14.00;99.90;;;;;;5015311;28;20182;-69
2024/02/17 08:44:40;;;;;;;11.40;8.07;;;13.90;99.90;;;;;;5018134;28;20196;-69
2024/02/17 08:47:06;;;;;;;10.10;8.00;;;13.90;99.90;;;;;;5015703;28;20189;-69
2024/02/17 08:49:32;;;;;;;11.23;7.57;;;13.80;99.90;;;;;;5021440;28;20191;-69
2024/02/17 08:51:58;;;;;;;11.23;7.83;;;13.80;99.90;;;;;;5010638;28;20346;-69
2024/02/17 08:54:25;;;;;;;8.50;7.30;;;13.80;99.90;;;;;;5017272;28;20347;-69
2024/02/17 08:56:52;;;;;;;8.87;6.90;;;13.80;99.90;;;;;;5015129;28;20535;-69
2024/02/17 08:59:18;;;;;;;10.80;7.07;;;13.80;99.90;;;;;;5017667;28;20526;-69
2024/02/17 09:01:48;;;;;;;9.07;7.07;;;13.80;99.90;;;;;;5018657;28;20894;-69
2024/02/17 09:04:14;;;;;;;10.70;9.10;;;13.80;99.90;;;;;;5012923;28;20232;-68
2024/02/17 09:06:40;;;;;;;10.20;7.80;;;13.70;99.90;;;;;;5016994;28;20529;-68
2024/02/17 09:09:05;;;;;;;8.80;7.50;;;13.70;99.90;;;;;;5017067;28;20243;-68
2024/02/17 09:11:31;;;;;;;11.50;8.10;;;13.70;99.90;;;;;;5017360;28;20195;-69
2024/02/17 09:13:57;;;;;;;9.73;7.60;;;13.80;99.90;;;;;;5013908;28;20222;-69
2024/02/17 09:16:23;;;;;;;12.67;8.97;;;13.70;99.90;;;;;;5020187;28;20192;-69
2024/02/17 09:18:49;;;;;;;9.90;8.13;;;13.80;99.90;;;;;;5019384;28;20417;-69
2024/02/17 09:21:14;;;;;;;10.63;8.20;;;13.80;99.90;;;;;;5016359;28;20432;-69
2024/02/17 09:23:40;;;;;;;9.90;8.10;;;13.90;99.90;;;;;;5019318;28;20470;-68
2024/02/17 09:26:06;;;;;;;10.70;9.10;;;13.90;99.90;;;;;;5019102;28;20251;-69
2024/02/17 09:28:31;;;;;;;9.20;8.13;;;13.70;99.90;;;;;;5014112;28;20192;-70
2024/02/17 09:30:57;;;;;;;10.20;8.80;;;13.60;99.90;;;;;;5013658;28;20205;-70
2024/02/17 09:33:28;;;;;;;11.87;8.63;;;13.70;99.90;;;;;;5016099;28;20239;-68
2024/02/17 09:35:56;;;;;;;9.80;8.30;;;13.80;99.90;;;;;;5021380;28;20173;-69
2024/02/17 09:38:23;;;;;;;9.50;7.70;;;13.80;99.90;;;;;;5020875;28;20447;-69
2024/02/17 09:40:51;;;;;;;10.03;8.13;;;13.80;99.90;;;;;;5012148;28;20421;-70
2024/02/17 09:43:17;;;;;;;12.80;8.03;;;13.60;99.90;;;;;;5011351;28;20519;-69
2024/02/17 09:45:43;;;;;;;9.27;7.60;;;13.50;99.90;;;;;;5013961;28;20559;-69
2024/02/17 09:48:11;;;;;;;9.80;7.00;;;13.50;99.90;;;;;;5012526;28;20199;-69
2024/02/17 09:50:37;;;;;;;8.10;7.30;;;13.60;99.90;;;;;;5014927;28;20196;-68
2024/02/17 09:53:05;;;;;;;11.93;7.53;;;13.60;99.90;;;;;;5012242;28;20464;-68
2024/02/17 09:55:31;;;;;;;9.77;7.77;;;13.40;99.90;;;;;;5014599;28;21012;-69
2024/02/17 09:57:57;;;;;;;9.80;7.80;;;13.40;99.90;;;;;;5018600;28;20431;-68
2024/02/17 10:00:23;;;;;;;10.33;8.37;;;13.40;99.90;;;;;;5022793;28;20181;-69
2024/02/17 10:02:51;;;;;;;9.37;8.37;;;13.50;99.90;;;;;;5013923;28;20423;-69
2024/02/17 10:05:20;;;;;;;12.17;7.90;;;13.70;99.90;;;;;;5016160;28;20468;-69
2024/02/17 10:07:50;;;;;;;15.40;7.83;;;13.70;99.90;;;;;;5016959;28;20984;-69
2024/02/17 10:10:17;;;;;;;11.53;9.43;;;13.70;99.90;;;;;;5008953;28;20434;-69
2024/02/17 10:12:51;;;;;;;10.10;8.90;;;13.60;99.90;;;;;;5013172;28;21795;-69
2024/02/17 10:15:18;;;;;;;10.10;8.60;;;13.60;99.90;;;;;;5022046;28;20470;-68
2024/02/17 10:17:44;;;;;;;9.17;7.87;;;13.60;99.90;;;;;;5017913;28;20421;-69
2024/02/17 10:20:11;;;;;;;12.03;10.83;;;13.60;99.90;;;;;;5022792;28;20515;-69
2024/02/17 10:22:37;;;;;;;12.03;9.70;;;13.60;99.90;;;;;;5032719;28;20183;-69
2024/02/17 10:25:02;;;;;;;13.40;9.27;;;13.60;99.90;;;;;;5020390;28;20440;-69
2024/02/17 10:27:28;;;;;;;16.10;9.17;;;13.60;99.90;;;;;;5024020;28;20450;-69
2024/02/17 10:30:16;;;;;;;12.33;8.23;;;13.70;99.90;;;;;;5009764;28;20185;-69
2024/02/17 10:32:42;;;;;;;15.67;9.37;;;13.60;99.90;;;;;;5014240;28;20180;-69
2024/02/17 10:35:09;;;;;;;9.20;8.23;;;13.80;99.90;;;;;;5011365;28;20487;-69
2024/02/17 10:37:38;;;;;;;10.47;8.50;;;13.90;99.90;;;;;;5017337;28;20494;-69
2024/02/17 10:40:08;;;;;;;12.30;8.93;;;13.90;99.90;;;;;;5013749;28;20470;-69
2024/02/17 10:42:34;;;;;;;8.73;7.83;;;13.90;99.90;;;;;;5020027;28;20510;-69
2024/02/17 10:45:00;;;;;;;9.30;7.43;;;13.90;99.90;;;;;;5020568;28;20514;-68
2024/02/17 10:47:28;;;;;;;10.20;7.10;;;14.00;99.90;;;;;;5021540;28;20203;-69
2024/02/17 10:50:14;;;;;;;12.00;8.63;;;14.20;99.90;;;;;;5012529;28;20521;-69
2024/02/17 10:52:50;;;;;;;8.30;7.07;;;14.30;99.90;;;;;;5025267;28;20520;-68
2024/02/17 10:55:24;;;;;;;14.17;7.67;;;14.50;99.90;;;;;;5020586;28;20510;-69
2024/02/17 10:57:56;;;;;;;5.70;5.00;;;14.60;99.90;;;;;;5021144;28;20472;-69
2024/02/17 11:00:22;;;;;;;6.13;5.50;;;14.90;99.90;;;;;;5022780;28;22187;-69
2024/02/17 11:02:50;;;;;;;6.17;4.33;;;15.10;99.90;;;;;;5028337;28;20429;-70
2024/02/17 11:05:18;;;;;;;5.23;3.80;;;15.40;99.90;;;;;;5023810;28;20475;-69
2024/02/17 11:07:45;;;;;;;7.67;3.23;;;15.50;99.90;;;;;;5024388;28;20923;-69
2024/02/17 11:10:12;;;;;;;5.50;3.90;;;15.60;99.90;;;;;;5020670;28;20443;-71
2024/02/17 11:12:39;;;;;;;6.63;4.17;;;15.60;99.90;;;;;;5021823;28;20517;-70
2024/02/17 11:15:09;;;;;;;5.90;4.50;;;15.60;99.90;;;;;;5023450;28;20571;-70
2024/02/17 11:17:36;;;;;;;4.80;4.07;;;15.80;99.90;;;;;;5026972;28;20430;-70
2024/02/17 11:20:11;;;;;;;8.07;4.53;;;15.80;99.90;;;;;;5025386;28;20423;-70
2024/02/17 11:22:39;;;;;;;9.90;5.13;;;15.80;99.90;;;;;;5028470;28;20438;-70
2024/02/17 11:25:07;;;;;;;8.43;5.40;;;15.90;99.90;;;;;;5026289;28;21023;-70
2024/02/17 11:27:33;;;;;;;12.10;5.60;;;15.80;99.90;;;;;;5029188;28;20424;-70
2024/02/17 11:29:59;;;;;;;6.40;5.07;;;15.80;99.90;;;;;;5028005;28;20433;-70
2024/02/17 11:32:28;;;;;;;5.53;4.93;;;15.70;99.90;;;;;;5033095;28;20441;-70
2024/02/17 11:34:55;;;;;;;5.50;4.30;;;15.70;99.90;;;;;;5026960;28;21003;-70
2024/02/17 11:37:22;;;;;;;6.07;4.40;;;15.60;99.90;;;;;;5024908;28;20516;-70
2024/02/17 11:39:50;;;;;;;7.50;4.90;;;15.40;99.90;;;;;;5029938;28;20426;-70
2024/02/17 11:42:17;;;;;;;8.63;5.67;;;15.30;99.90;;;;;;5022058;28;20446;-70
2024/02/17 11:44:45;;;;;;;7.93;5.07;;;15.20;99.90;;;;;;5029354;28;20872;-70
2024/02/17 11:47:11;;;;;;;8.07;4.90;;;15.20;99.90;;;;;;5025708;28;20423;-70
2024/02/17 11:49:40;;;;;;;6.50;4.90;;;15.20;99.90;;;;;;5022311;28;20439;-70
2024/02/17 11:52:07;;;;;;;6.20;4.67;;;15.30;99.90;;;;;;5023760;28;20423;-70
2024/02/17 11:54:34;;;;;;;7.03;4.57;;;15.50;99.90;;;;;;5027213;28;20469;-69
2024/02/17 11:57:01;;;;;;;8.13;4.93;;;15.60;99.90;;;;;;5020743;28;21167;-70
2024/02/17 11:59:28;;;;;;;7.40;4.50;;;15.80;99.90;;;;;;5025418;28;20430;-70
2024/02/17 12:01:55;;;;;;;6.27;3.97;;;16.00;99.90;;;;;;5019747;28;21265;-70
2024/02/17 12:04:22;;;;;;;6.20;4.30;;;16.30;99.90;;;;;;5024632;28;20463;-69
2024/02/17 12:06:47;;;;;;;6.77;3.50;;;16.30;99.90;;;;;;5022967;28;20916;-70
2024/02/17 12:09:14;;;;;;;5.73;3.30;;;16.60;99.90;;;;;;5014491;28;20441;-70
2024/02/17 12:11:41;;;;;;;7.63;5.63;;;16.90;99.90;;;;;;5016783;28;20204;-70
2024/02/17 12:14:08;;;;;;;5.87;5.10;;;17.70;99.90;;;;;;5016886;28;20490;-70
2024/02/17 12:16:35;;;;;;;9.07;7.23;;;20.00;99.90;;;;;;5017395;28;20854;-71
2024/02/17 12:19:06;;;;;;;4.10;3.43;;;22.40;99.90;;;;;;5012876;28;20565;-70
2024/02/17 12:21:33;;;;;;;4.50;3.73;;;23.90;99.90;;;;;;5011446;28;20419;-70
2024/02/17 12:23:59;;;;;;;3.47;3.03;;;25.00;99.90;;;;;;5013418;28;20545;-71
2024/02/17 12:26:28;;;;;;;7.27;4.73;;;25.30;98.50;;;;;;5013526;28;20859;-71
2024/02/17 12:28:55;;;;;;;6.03;4.17;;;24.70;97.80;;;;;;5012910;28;20646;-70
2024/02/17 12:31:24;;;;;;;7.10;5.13;;;24.10;96.00;;;;;;5013693;28;20420;-70
2024/02/17 12:33:50;;;;;;;3.80;3.13;;;24.50;97.40;;;;;;5019634;28;20553;-71
2024/02/17 12:36:21;;;;;;;8.93;7.63;;;25.70;96.30;;;;;;5009330;28;20786;-71